sensor_id;sensor_type;location;lat;lon;timestamp;temperature;humidity
12967;DHT22;6548;49.996;8.238;2022-12-18T04:30:13;-7.90;99.90
12967;DHT22;6548;49.996;8.238;2022-12-18T04:32:38;-8.00;99.90
12967;DHT22;6548;49.996;8.238;2022-12-18T04:35:04;-8.00;99.90
12967;DHT22;6548;49.996;8.238;2022-12-18T04:37:32;-8.00;99.90
12967;DHT22;6548;49.996;8.238;2022-12-18T04:39:57;-8.20;99.90
12967;DHT22;6548;49.996;8.238;2022-12-18T04:42:23;-8.20;99.90
12967;DHT22;6548;49.996;8.238;2022-12-18T04:44:49;-8.10;99.90
12967;DHT22;6548;49.996;8.238;2022-12-18T04:47:14;-8.00;99.90
12967;DHT22;6548;49.996;8.238;2022-12-18T04:49:40;-8.10;99.90
12967;DHT22;6548;49.996;8.238;2022-12-18T04:52:05;-8.10;99.90
12967;DHT22;6548;49.996;8.238;2022-12-18T04:54:31;-8.10;99.90
12967;DHT22;6548;49.996;8.238;2022-12-18T04:56:56;-8.00;99.90
12967;DHT22;6548;49.996;8.238;2022-12-18T04:59:22;-7.80;99.90
12967;DHT22;6548;49.996;8.238;2022-12-18T05:01:47;-7.80;99.90
12967;DHT22;6548;49.996;8.238;2022-12-18T05:04:13;-7.80;99.90
12967;DHT22;6548;49.996;8.238;2022-12-18T05:06:38;-7.90;99.90
12967;DHT22;6548;49.996;8.238;2022-12-18T05:09:04;-8.00;99.90
12967;DHT22;6548;49.996;8.238;2022-12-18T05:11:30;-8.20;99.90
12967;DHT22;6548;49.996;8.238;2022-12-18T05:13:55;-8.20;99.90
12967;DHT22;6548;49.996;8.238;2022-12-18T05:16:21;-8.20;99.90
12967;DHT22;6548;49.996;8.238;2022-12-18T05:18:46;-8.20;99.90
12967;DHT22;6548;49.996;8.238;2022-12-18T05:21:12;-8.20;99.90
12967;DHT22;6548;49.996;8.238;2022-12-18T05:23:37;-8.20;99.90
12967;DHT22;6548;49.996;8.238;2022-12-18T05:26:05;-8.20;99.90
12967;DHT22;6548;49.996;8.238;2022-12-18T05:28:32;-8.20;99.90
12967;DHT22;6548;49.996;8.238;2022-12-18T05:31:00;-8.10;99.90
12967;DHT22;6548;49.996;8.238;2022-12-18T05:33:30;-7.50;99.90
12967;DHT22;6548;49.996;8.238;2022-12-18T05:35:58;-8.00;99.90
12967;DHT22;6548;49.996;8.238;2022-12-18T05:38:29;-8.10;99.90
12967;DHT22;6548;49.996;8.238;2022-12-18T05:40:55;-8.00;99.90
12967;DHT22;6548;49.996;8.238;2022-12-18T05:43:22;-7.80;99.90
12967;DHT22;6548;49.996;8.238;2022-12-18T05:45:49;-7.70;99.90
12967;DHT22;6548;49.996;8.238;2022-12-18T05:48:15;-7.80;99.90
12967;DHT22;6548;49.996;8.238;2022-12-18T05:50:43;-7.90;99.90
12967;DHT22;6548;49.996;8.238;2022-12-18T05:53:10;-7.70;99.90
12967;DHT22;6548;49.996;8.238;2022-12-18T05:55:38;-7.70;99.90
12967;DHT22;6548;49.996;8.238;2022-12-18T05:58:05;-7.80;99.90
12967;DHT22;6548;49.996;8.238;2022-12-18T06:00:32;-7.90;99.90
12967;DHT22;6548;49.996;8.238;2022-12-18T06:03:00;-7.90;99.90
12967;DHT22;6548;49.996;8.238;2022-12-18T06:05:25;-8.00;99.90
12967;DHT22;6548;49.996;8.238;2022-12-18T06:07:51;-8.20;99.90
12967;DHT22;6548;49.996;8.238;2022-12-18T06:10:17;-8.10;99.90
12967;DHT22;6548;49.996;8.238;2022-12-18T06:12:42;-8.10;99.90
12967;DHT22;6548;49.996;8.238;2022-12-18T06:15:08;-8.10;99.90
12967;DHT22;6548;49.996;8.238;2022-12-18T06:17:34;-8.10;99.90
12967;DHT22;6548;49.996;8.238;2022-12-18T06:20:00;-8.00;99.90
12967;DHT22;6548;49.996;8.238;2022-12-18T06:22:27;-7.90;99.90
12967;DHT22;6548;49.996;8.238;2022-12-18T06:24:52;-7.80;99.90
12967;DHT22;6548;49.996;8.238;2022-12-18T06:27:18;-7.90;99.90
12967;DHT22;6548;49.996;8.238;2022-12-18T06:29:44;-8.00;99.90
12967;DHT22;6548;49.996;8.238;2022-12-18T06:32:09;-7.90;99.90
12967;DHT22;6548;49.996;8.238;2022-12-18T06:34:37;-8.00;99.90
12967;DHT22;6548;49.996;8.238;2022-12-18T06:37:03;-8.00;99.90
12967;DHT22;6548;49.996;8.238;2022-12-18T06:39:29;-8.00;99.90
12967;DHT22;6548;49.996;8.238;2022-12-18T06:41:54;-8.00;99.90
12967;DHT22;6548;49.996;8.238;2022-12-18T06:44:20;-8.10;99.90
12967;DHT22;6548;49.996;8.238;2022-12-18T06:46:46;-8.00;99.90
12967;DHT22;6548;49.996;8.238;2022-12-18T06:49:11;-8.10;99.90
12967;DHT22;6548;49.996;8.238;2022-12-18T06:51:37;-8.10;99.90
12967;DHT22;6548;49.996;8.238;2022-12-18T06:54:03;-8.10;99.90
12967;DHT22;6548;49.996;8.238;2022-12-18T06:56:29;-7.90;99.90
12967;DHT22;6548;49.996;8.238;2022-12-18T06:58:55;-7.90;99.90
12967;DHT22;6548;49.996;8.238;2022-12-18T07:01:21;-7.90;99.90
12967;DHT22;6548;49.996;8.238;2022-12-18T07:03:47;-7.90;99.90
12967;DHT22;6548;49.996;8.238;2022-12-18T07:06:18;-8.00;99.90
12967;DHT22;6548;49.996;8.238;2022-12-18T07:08:45;-8.00;99.90
12967;DHT22;6548;49.996;8.238;2022-12-18T07:11:11;-7.90;99.90
12967;DHT22;6548;49.996;8.238;2022-12-18T07:13:37;-8.00;99.90
12967;DHT22;6548;49.996;8.238;2022-12-18T07:16:17;-7.90;99.90
12967;DHT22;6548;49.996;8.238;2022-12-18T07:18:43;-7.80;99.90
12967;DHT22;6548;49.996;8.238;2022-12-18T07:21:13;-7.70;99.90
12967;DHT22;6548;49.996;8.238;2022-12-18T07:23:39;-7.70;99.90
12967;DHT22;6548;49.996;8.238;2022-12-18T07:26:07;-7.90;99.90
12967;DHT22;6548;49.996;8.238;2022-12-18T07:28:33;-7.80;99.90
12967;DHT22;6548;49.996;8.238;2022-12-18T07:31:12;-7.80;99.90
12967;DHT22;6548;49.996;8.238;2022-12-18T07:33:38;-7.70;99.90
12967;DHT22;6548;49.996;8.238;2022-12-18T07:36:05;-7.80;99.90
12967;DHT22;6548;49.996;8.238;2022-12-18T07:38:32;-7.70;99.90
12967;DHT22;6548;49.996;8.238;2022-12-18T07:41:06;-7.60;99.90
12967;DHT22;6548;49.996;8.238;2022-12-18T07:43:33;-7.60;99.90
12967;DHT22;6548;49.996;8.238;2022-12-18T07:45:58;-7.40;99.90
12967;DHT22;6548;49.996;8.238;2022-12-18T07:48:24;-7.20;99.90
12967;DHT22;6548;49.996;8.238;2022-12-18T07:50:49;-7.30;99.90
12967;DHT22;6548;49.996;8.238;2022-12-18T07:53:15;-7.10;99.90
12967;DHT22;6548;49.996;8.238;2022-12-18T07:55:41;-7.10;99.90
12967;DHT22;6548;49.996;8.238;2022-12-18T07:58:07;-7.00;99.90
12967;DHT22;6548;49.996;8.238;2022-12-18T08:00:33;-6.90;99.90
12967;DHT22;6548;49.996;8.238;2022-12-18T08:02:59;-7.00;99.90
12967;DHT22;6548;49.996;8.238;2022-12-18T08:05:25;-6.80;99.90
12967;DHT22;6548;49.996;8.238;2022-12-18T08:07:50;-6.70;99.90
12967;DHT22;6548;49.996;8.238;2022-12-18T08:10:16;-6.60;99.90
12967;DHT22;6548;49.996;8.238;2022-12-18T08:12:42;-6.50;99.90
12967;DHT22;6548;49.996;8.238;2022-12-18T08:15:08;-6.50;99.90
12967;DHT22;6548;49.996;8.238;2022-12-18T08:17:33;-6.40;99.90
12967;DHT22;6548;49.996;8.238;2022-12-18T08:19:59;-6.30;99.90
12967;DHT22;6548;49.996;8.238;2022-12-18T08:22:25;-6.10;99.90
12967;DHT22;6548;49.996;8.238;2022-12-18T08:24:50;-6.00;99.90
12967;DHT22;6548;49.996;8.238;2022-12-18T08:27:16;-6.00;99.90
12967;DHT22;6548;49.996;8.238;2022-12-18T08:29:41;-6.00;99.90
12967;DHT22;6548;49.996;8.238;2022-12-18T08:32:07;-5.80;99.90
12967;DHT22;6548;49.996;8.238;2022-12-18T08:34:33;-5.70;99.90
12967;DHT22;6548;49.996;8.238;2022-12-18T08:36:58;-5.70;99.90
12967;DHT22;6548;49.996;8.238;2022-12-18T08:39:24;-5.70;99.90
12967;DHT22;6548;49.996;8.238;2022-12-18T08:41:49;-5.60;99.90
12967;DHT22;6548;49.996;8.238;2022-12-18T08:44:33;-5.40;99.90
12967;DHT22;6548;49.996;8.238;2022-12-18T08:47:05;-5.30;99.90
12967;DHT22;6548;49.996;8.238;2022-12-18T08:49:31;-5.10;99.90
12967;DHT22;6548;49.996;8.238;2022-12-18T08:51:57;-5.00;99.90
12967;DHT22;6548;49.996;8.238;2022-12-18T08:54:24;-5.00;99.90
12967;DHT22;6548;49.996;8.238;2022-12-18T08:56:49;-5.10;99.90
12967;DHT22;6548;49.996;8.238;2022-12-18T08:59:16;-5.20;99.90
12967;DHT22;6548;49.996;8.238;2022-12-18T09:01:42;-5.10;99.90
12967;DHT22;6548;49.996;8.238;2022-12-18T09:04:11;-5.10;99.90
12967;DHT22;6548;49.996;8.238;2022-12-18T09:06:37;-5.20;99.90
12967;DHT22;6548;49.996;8.238;2022-12-18T09:09:04;-5.50;99.90
12967;DHT22;6548;49.996;8.238;2022-12-18T09:11:31;-5.40;99.90
12967;DHT22;6548;49.996;8.238;2022-12-18T09:13:57;-5.10;99.90
12967;DHT22;6548;49.996;8.238;2022-12-18T09:16:24;-4.90;99.90
12967;DHT22;6548;49.996;8.238;2022-12-18T09:18:50;-5.10;99.90
12967;DHT22;6548;49.996;8.238;2022-12-18T09:21:19;-5.10;99.90
12967;DHT22;6548;49.996;8.238;2022-12-18T09:23:49;-5.10;99.90
12967;DHT22;6548;49.996;8.238;2022-12-18T09:26:15;-4.90;99.90
12967;DHT22;6548;49.996;8.238;2022-12-18T09:28:40;-4.90;99.90
12967;DHT22;6548;49.996;8.238;2022-12-18T09:31:08;-4.80;99.90
12967;DHT22;6548;49.996;8.238;2022-12-18T09:33:35;-5.20;99.90
12967;DHT22;6548;49.996;8.238;2022-12-18T09:36:03;-5.00;99.90
12967;DHT22;6548;49.996;8.238;2022-12-18T09:38:28;-4.10;99.90
12967;DHT22;6548;49.996;8.238;2022-12-18T09:40:58;-5.00;99.90
12967;DHT22;6548;49.996;8.238;2022-12-18T09:43:37;-5.00;99.90
12967;DHT22;6548;49.996;8.238;2022-12-18T09:46:09;-4.90;99.90
12967;DHT22;6548;49.996;8.238;2022-12-18T09:48:40;-4.90;99.90
12967;DHT22;6548;49.996;8.238;2022-12-18T09:51:18;-4.80;99.90
12967;DHT22;6548;49.996;8.238;2022-12-18T09:53:50;-4.70;99.90
12967;DHT22;6548;49.996;8.238;2022-12-18T09:56:19;-4.90;99.90
12967;DHT22;6548;49.996;8.238;2022-12-18T09:58:58;-4.90;99.90
12967;DHT22;6548;49.996;8.238;2022-12-18T10:01:25;-5.10;99.90
12967;DHT22;6548;49.996;8.238;2022-12-18T10:03:52;-5.10;99.90
12967;DHT22;6548;49.996;8.238;2022-12-18T10:09:01;-4.90;99.90
12967;DHT22;6548;49.996;8.238;2022-12-18T10:19:58;-4.50;99.90
12967;DHT22;6548;49.996;8.238;2022-12-18T10:22:41;-4.50;99.90
12967;DHT22;6548;49.996;8.238;2022-12-18T10:28:24;-4.50;99.90
12967;DHT22;6548;49.996;8.238;2022-12-18T10:30:50;-4.50;99.90
12967;DHT22;6548;49.996;8.238;2022-12-18T10:33:19;-4.60;99.90
12967;DHT22;6548;49.996;8.238;2022-12-18T10:35:45;-4.60;99.90
12967;DHT22;6548;49.996;8.238;2022-12-18T10:43:14;-4.60;99.90
12967;DHT22;6548;49.996;8.238;2022-12-18T10:45:41;-4.70;99.90
12967;DHT22;6548;49.996;8.238;2022-12-18T10:48:21;-4.90;99.90
12967;DHT22;6548;49.996;8.238;2022-12-18T10:50:51;-4.80;99.90
12967;DHT22;6548;49.996;8.238;2022-12-18T10:53:28;-4.70;99.90
12967;DHT22;6548;49.996;8.238;2022-12-18T10:55:58;-4.50;99.90
12967;DHT22;6548;49.996;8.238;2022-12-18T10:58:37;-4.60;99.90
12967;DHT22;6548;49.996;8.238;2022-12-18T11:01:17;-4.60;99.90
12967;DHT22;6548;49.996;8.238;2022-12-18T11:04:08;-4.40;99.90
12967;DHT22;6548;49.996;8.238;2022-12-18T11:06:32;-4.70;99.90
12967;DHT22;6548;49.996;8.238;2022-12-18T11:09:03;-4.50;99.90
12967;DHT22;6548;49.996;8.238;2022-12-18T11:11:29;-4.40;99.90
12967;DHT22;6548;49.996;8.238;2022-12-18T11:14:05;-4.20;99.90
12967;DHT22;6548;49.996;8.238;2022-12-18T11:16:42;-4.10;99.90
12967;DHT22;6548;49.996;8.238;2022-12-18T11:21:43;-3.70;99.90
12967;DHT22;6548;49.996;8.238;2022-12-18T11:24:29;-3.90;99.90
12967;DHT22;6548;49.996;8.238;2022-12-18T11:27:00;-4.40;99.90
12967;DHT22;6548;49.996;8.238;2022-12-18T11:29:35;-4.40;99.90
12967;DHT22;6548;49.996;8.238;2022-12-18T11:37:39;-4.20;99.90
12967;DHT22;6548;49.996;8.238;2022-12-18T11:40:20;-4.30;99.90
12967;DHT22;6548;49.996;8.238;2022-12-18T11:43:07;-4.10;99.90
12967;DHT22;6548;49.996;8.238;2022-12-18T11:45:41;-4.00;99.90
12967;DHT22;6548;49.996;8.238;2022-12-18T11:48:24;-3.90;99.90
12967;DHT22;6548;49.996;8.238;2022-12-18T11:50:54;-3.90;99.90
12967;DHT22;6548;49.996;8.238;2022-12-18T11:53:21;-4.30;99.90
12967;DHT22;6548;49.996;8.238;2022-12-18T11:56:02;-4.40;99.90
12967;DHT22;6548;49.996;8.238;2022-12-18T11:58:47;-4.10;99.90
12967;DHT22;6548;49.996;8.238;2022-12-18T12:01:50;-4.00;99.90
12967;DHT22;6548;49.996;8.238;2022-12-18T12:04:48;-4.00;99.90
12967;DHT22;6548;49.996;8.238;2022-12-18T12:07:38;-4.00;99.90
12967;DHT22;6548;49.996;8.238;2022-12-18T12:15:46;-4.40;99.90
12967;DHT22;6548;49.996;8.238;2022-12-18T12:21:14;-4.30;99.90
12967;DHT22;6548;49.996;8.238;2022-12-18T12:26:54;-4.20;99.90
12967;DHT22;6548;49.996;8.238;2022-12-18T12:29:36;-4.10;99.90
12967;DHT22;6548;49.996;8.238;2022-12-18T12:32:20;-4.10;99.90
12967;DHT22;6548;49.996;8.238;2022-12-18T12:40:19;-4.20;99.90
12967;DHT22;6548;49.996;8.238;2022-12-18T12:48:49;-4.10;99.90
12967;DHT22;6548;49.996;8.238;2022-12-18T12:51:30;-4.00;99.90
12967;DHT22;6548;49.996;8.238;2022-12-18T12:53:58;-3.90;99.90
12967;DHT22;6548;49.996;8.238;2022-12-18T12:56:29;-4.00;99.90
12967;DHT22;6548;49.996;8.238;2022-12-18T12:59:06;-4.00;99.90
12967;DHT22;6548;49.996;8.238;2022-12-18T13:04:53;-3.90;99.90
12967;DHT22;6548;49.996;8.238;2022-12-18T13:07:27;-4.00;99.90
12967;DHT22;6548;49.996;8.238;2022-12-18T13:10:34;-4.00;99.90
12967;DHT22;6548;49.996;8.238;2022-12-18T13:13:11;-3.90;99.90
12967;DHT22;6548;49.996;8.238;2022-12-18T13:18:13;-3.90;99.90
12967;DHT22;6548;49.996;8.238;2022-12-18T13:20:50;-3.90;99.90
12967;DHT22;6548;49.996;8.238;2022-12-18T13:25:45;-3.90;99.90
12967;DHT22;6548;49.996;8.238;2022-12-18T13:28:16;-3.90;99.90
12967;DHT22;6548;49.996;8.238;2022-12-18T13:30:46;-3.80;99.90
12967;DHT22;6548;49.996;8.238;2022-12-18T13:38:37;-4.00;99.90
12967;DHT22;6548;49.996;8.238;2022-12-18T13:43:49;-3.80;99.90
12967;DHT22;6548;49.996;8.238;2022-12-18T13:46:29;-3.90;99.90
12967;DHT22;6548;49.996;8.238;2022-12-18T13:49:06;-3.90;99.90
12967;DHT22;6548;49.996;8.238;2022-12-18T13:51:50;-4.00;99.90
12967;DHT22;6548;49.996;8.238;2022-12-18T13:56:47;-4.10;99.90
12967;DHT22;6548;49.996;8.238;2022-12-18T14:01:58;-3.90;99.90
12967;DHT22;6548;49.996;8.238;2022-12-18T14:04:27;-3.90;99.90
12967;DHT22;6548;49.996;8.238;2022-12-18T14:07:06;-3.90;99.90
12967;DHT22;6548;49.996;8.238;2022-12-18T14:09:39;-3.80;99.90
12967;DHT22;6548;49.996;8.238;2022-12-18T14:12:06;-3.90;99.90
12967;DHT22;6548;49.996;8.238;2022-12-18T14:14:56;-3.90;99.90
12967;DHT22;6548;49.996;8.238;2022-12-18T14:17:22;-3.90;99.90
12967;DHT22;6548;49.996;8.238;2022-12-18T14:19:50;-4.00;99.90
12967;DHT22;6548;49.996;8.238;2022-12-18T14:22:21;-3.60;99.90
12967;DHT22;6548;49.996;8.238;2022-12-18T14:25:13;-4.00;99.90
12967;DHT22;6548;49.996;8.238;2022-12-18T14:27:47;-3.90;99.90
12967;DHT22;6548;49.996;8.238;2022-12-18T14:30:34;-3.70;99.90
12967;DHT22;6548;49.996;8.238;2022-12-18T14:33:05;-3.60;99.90
12967;DHT22;6548;49.996;8.238;2022-12-18T14:35:33;-3.60;99.90
12967;DHT22;6548;49.996;8.238;2022-12-18T14:38:23;-3.70;99.90
12967;DHT22;6548;49.996;8.238;2022-12-18T14:41:19;-3.80;99.90
12967;DHT22;6548;49.996;8.238;2022-12-18T14:43:47;-3.80;99.90
12967;DHT22;6548;49.996;8.238;2022-12-18T14:49:14;-3.70;99.90
12967;DHT22;6548;49.996;8.238;2022-12-18T14:51:54;-3.80;99.90
12967;DHT22;6548;49.996;8.238;2022-12-18T14:54:21;-3.90;99.90
12967;DHT22;6548;49.996;8.238;2022-12-18T14:57:03;-4.00;99.90
12967;DHT22;6548;49.996;8.238;2022-12-18T14:59:30;-4.00;99.90
12967;DHT22;6548;49.996;8.238;2022-12-18T15:02:01;-4.00;99.90
12967;DHT22;6548;49.996;8.238;2022-12-18T15:04:35;-4.00;99.90
12967;DHT22;6548;49.996;8.238;2022-12-18T15:07:16;-4.00;99.90
12967;DHT22;6548;49.996;8.238;2022-12-18T15:10:19;-3.80;99.90
12967;DHT22;6548;49.996;8.238;2022-12-18T15:12:46;-4.00;99.90
12967;DHT22;6548;49.996;8.238;2022-12-18T15:23:36;-4.00;99.90
12967;DHT22;6548;49.996;8.238;2022-12-18T15:26:08;-4.00;99.90
12967;DHT22;6548;49.996;8.238;2022-12-18T15:28:39;-3.90;99.90
12967;DHT22;6548;49.996;8.238;2022-12-18T15:33:42;-3.90;99.90
12967;DHT22;6548;49.996;8.238;2022-12-18T15:36:13;-3.80;99.90
12967;DHT22;6548;49.996;8.238;2022-12-18T15:38:39;-3.90;99.90
12967;DHT22;6548;49.996;8.238;2022-12-18T15:41:17;-3.90;99.90
12967;DHT22;6548;49.996;8.238;2022-12-18T15:43:44;-3.70;99.90
12967;DHT22;6548;49.996;8.238;2022-12-18T15:46:17;-3.70;99.90
12967;DHT22;6548;49.996;8.238;2022-12-18T15:51:25;-3.80;99.90
12967;DHT22;6548;49.996;8.238;2022-12-18T15:53:55;-3.90;99.90
12967;DHT22;6548;49.996;8.238;2022-12-18T15:56:21;-3.90;99.90
12967;DHT22;6548;49.996;8.238;2022-12-18T15:59:14;-3.90;99.90
12967;DHT22;6548;49.996;8.238;2022-12-18T16:01:41;-4.00;99.90
12967;DHT22;6548;49.996;8.238;2022-12-18T16:04:10;-4.00;99.90
12967;DHT22;6548;49.996;8.238;2022-12-18T16:06:36;-3.90;99.90
12967;DHT22;6548;49.996;8.238;2022-12-18T16:09:02;-3.60;99.90
12967;DHT22;6548;49.996;8.238;2022-12-18T16:11:30;-4.00;99.90
12967;DHT22;6548;49.996;8.238;2022-12-18T16:14:21;-3.90;99.90
12967;DHT22;6548;49.996;8.238;2022-12-18T16:16:50;-3.90;99.90
12967;DHT22;6548;49.996;8.238;2022-12-18T16:19:16;-4.00;99.90
12967;DHT22;6548;49.996;8.238;2022-12-18T16:21:42;-4.00;99.90
12967;DHT22;6548;49.996;8.238;2022-12-18T16:24:23;-4.00;99.90
12967;DHT22;6548;49.996;8.238;2022-12-18T16:26:50;-3.80;99.90
12967;DHT22;6548;49.996;8.238;2022-12-18T16:29:19;-3.80;99.90
12967;DHT22;6548;49.996;8.238;2022-12-18T16:31:50;-3.80;99.90
12967;DHT22;6548;49.996;8.238;2022-12-18T16:34:27;-3.90;99.90
12967;DHT22;6548;49.996;8.238;2022-12-18T16:36:54;-3.90;99.90
12967;DHT22;6548;49.996;8.238;2022-12-18T16:39:20;-3.80;99.90
12967;DHT22;6548;49.996;8.238;2022-12-18T16:41:46;-3.80;99.90
12967;DHT22;6548;49.996;8.238;2022-12-18T16:44:12;-3.80;99.90
12967;DHT22;6548;49.996;8.238;2022-12-18T16:46:38;-3.80;99.90
12967;DHT22;6548;49.996;8.238;2022-12-18T16:49:04;-3.80;99.90
12967;DHT22;6548;49.996;8.238;2022-12-18T16:51:33;-3.80;99.90
12967;DHT22;6548;49.996;8.238;2022-12-18T16:53:59;-3.70;99.90
12967;DHT22;6548;49.996;8.238;2022-12-18T16:56:25;-3.80;99.90
12967;DHT22;6548;49.996;8.238;2022-12-18T16:58:52;-3.80;99.90
12967;DHT22;6548;49.996;8.238;2022-12-18T17:01:19;-3.70;99.90
12967;DHT22;6548;49.996;8.238;2022-12-18T17:03:50;-3.60;99.90
12967;DHT22;6548;49.996;8.238;2022-12-18T17:06:16;-3.60;99.90
12967;DHT22;6548;49.996;8.238;2022-12-18T17:08:41;-3.40;99.90
12967;DHT22;6548;49.996;8.238;2022-12-18T17:11:07;-3.50;99.90
12967;DHT22;6548;49.996;8.238;2022-12-18T17:13:33;-3.60;99.90
12967;DHT22;6548;49.996;8.238;2022-12-18T17:16:06;-3.50;99.90
12967;DHT22;6548;49.996;8.238;2022-12-18T17:18:33;-3.50;99.90
12967;DHT22;6548;49.996;8.238;2022-12-18T17:21:03;-3.60;99.90
12967;DHT22;6548;49.996;8.238;2022-12-18T17:23:30;-3.60;99.90
12967;DHT22;6548;49.996;8.238;2022-12-18T17:25:57;-3.70;99.90
12967;DHT22;6548;49.996;8.238;2022-12-18T17:28:23;-3.70;99.90
12967;DHT22;6548;49.996;8.238;2022-12-18T17:30:54;-3.60;99.90
12967;DHT22;6548;49.996;8.238;2022-12-18T17:33:20;-3.60;99.90
12967;DHT22;6548;49.996;8.238;2022-12-18T17:35:46;-3.60;99.90
12967;DHT22;6548;49.996;8.238;2022-12-18T17:38:12;-3.60;99.90
12967;DHT22;6548;49.996;8.238;2022-12-18T17:40:38;-3.50;99.90
12967;DHT22;6548;49.996;8.238;2022-12-18T17:43:05;-3.40;99.90
12967;DHT22;6548;49.996;8.238;2022-12-18T17:45:34;-3.40;99.90
12967;DHT22;6548;49.996;8.238;2022-12-18T17:48:00;-3.30;99.90
12967;DHT22;6548;49.996;8.238;2022-12-18T17:50:26;-3.10;99.90
12967;DHT22;6548;49.996;8.238;2022-12-18T17:52:55;-3.00;99.90
12967;DHT22;6548;49.996;8.238;2022-12-18T17:55:21;-2.70;99.90
12967;DHT22;6548;49.996;8.238;2022-12-18T17:57:46;-3.20;99.90
12967;DHT22;6548;49.996;8.238;2022-12-18T18:00:12;-3.10;99.90
12967;DHT22;6548;49.996;8.238;2022-12-18T18:02:38;-3.10;99.90
12967;DHT22;6548;49.996;8.238;2022-12-18T18:05:04;-2.90;99.90
12967;DHT22;6548;49.996;8.238;2022-12-18T18:07:29;-2.80;99.90
12967;DHT22;6548;49.996;8.238;2022-12-18T18:09:55;-2.70;99.90
12967;DHT22;6548;49.996;8.238;2022-12-18T18:12:21;-2.50;99.90
12967;DHT22;6548;49.996;8.238;2022-12-18T18:15:05;-2.50;99.90
12967;DHT22;6548;49.996;8.238;2022-12-18T18:17:31;-2.70;99.90
12967;DHT22;6548;49.996;8.238;2022-12-18T18:19:56;-2.90;99.90
12967;DHT22;6548;49.996;8.238;2022-12-18T18:22:22;-3.00;99.90
12967;DHT22;6548;49.996;8.238;2022-12-18T18:24:47;-3.00;99.90
12967;DHT22;6548;49.996;8.238;2022-12-18T18:27:13;-3.00;99.90
12967;DHT22;6548;49.996;8.238;2022-12-18T18:29:39;-2.90;99.90
12967;DHT22;6548;49.996;8.238;2022-12-18T18:32:04;-2.90;99.90
12967;DHT22;6548;49.996;8.238;2022-12-18T18:34:31;-2.90;99.90
12967;DHT22;6548;49.996;8.238;2022-12-18T18:36:57;-3.00;99.90
12967;DHT22;6548;49.996;8.238;2022-12-18T18:39:23;-3.10;99.90
12967;DHT22;6548;49.996;8.238;2022-12-18T18:41:49;-3.00;99.90
12967;DHT22;6548;49.996;8.238;2022-12-18T18:44:18;-3.10;99.90
12967;DHT22;6548;49.996;8.238;2022-12-18T18:46:47;-3.10;99.90
12967;DHT22;6548;49.996;8.238;2022-12-18T18:49:14;-3.10;99.90
12967;DHT22;6548;49.996;8.238;2022-12-18T18:51:42;-3.10;99.90
12967;DHT22;6548;49.996;8.238;2022-12-18T18:54:08;-3.20;99.90
12967;DHT22;6548;49.996;8.238;2022-12-18T18:56:34;-3.20;99.90
12967;DHT22;6548;49.996;8.238;2022-12-18T18:59:00;-3.20;99.90
12967;DHT22;6548;49.996;8.238;2022-12-18T19:01:26;-3.20;99.90
12967;DHT22;6548;49.996;8.238;2022-12-18T19:03:52;-3.20;99.90
12967;DHT22;6548;49.996;8.238;2022-12-18T19:06:20;-3.10;99.90
12967;DHT22;6548;49.996;8.238;2022-12-18T19:08:49;-3.10;99.90
12967;DHT22;6548;49.996;8.238;2022-12-18T19:11:15;-3.10;99.90
12967;DHT22;6548;49.996;8.238;2022-12-18T19:14:00;-3.10;99.90
12967;DHT22;6548;49.996;8.238;2022-12-18T19:16:27;-3.10;99.90
12967;DHT22;6548;49.996;8.238;2022-12-18T19:18:54;-3.10;99.90
12967;DHT22;6548;49.996;8.238;2022-12-18T19:21:21;-3.10;99.90
12967;DHT22;6548;49.996;8.238;2022-12-18T19:23:47;-2.70;99.90
12967;DHT22;6548;49.996;8.238;2022-12-18T19:26:13;-3.10;99.90
12967;DHT22;6548;49.996;8.238;2022-12-18T19:28:39;-3.00;99.90
12967;DHT22;6548;49.996;8.238;2022-12-18T19:31:07;-3.10;99.90
12967;DHT22;6548;49.996;8.238;2022-12-18T19:33:38;-3.00;99.90
12967;DHT22;6548;49.996;8.238;2022-12-18T19:36:38;-2.90;99.90
12967;DHT22;6548;49.996;8.238;2022-12-18T19:39:13;-2.90;99.90
12967;DHT22;6548;49.996;8.238;2022-12-18T19:41:39;-2.90;99.90
12967;DHT22;6548;49.996;8.238;2022-12-18T19:44:05;-2.90;99.90
12967;DHT22;6548;49.996;8.238;2022-12-18T19:46:31;-2.90;99.90
12967;DHT22;6548;49.996;8.238;2022-12-18T19:48:58;-2.80;99.90
12967;DHT22;6548;49.996;8.238;2022-12-18T19:51:25;-2.90;99.90
12967;DHT22;6548;49.996;8.238;2022-12-18T19:53:53;-2.90;99.90
12967;DHT22;6548;49.996;8.238;2022-12-18T19:56:21;-2.90;99.90
12967;DHT22;6548;49.996;8.238;2022-12-18T19:58:47;-2.90;99.90
12967;DHT22;6548;49.996;8.238;2022-12-18T20:01:14;-2.90;99.90
12967;DHT22;6548;49.996;8.238;2022-12-18T20:03:40;-2.90;99.90
12967;DHT22;6548;49.996;8.238;2022-12-18T20:08:45;-2.70;99.90
12967;DHT22;6548;49.996;8.238;2022-12-18T20:11:10;-2.60;99.90
12967;DHT22;6548;49.996;8.238;2022-12-18T20:13:36;-2.70;99.90
12967;DHT22;6548;49.996;8.238;2022-12-18T20:16:03;-2.60;99.90
12967;DHT22;6548;49.996;8.238;2022-12-18T20:18:28;-2.70;99.90
12967;DHT22;6548;49.996;8.238;2022-12-18T20:20:54;-2.70;99.90
12967;DHT22;6548;49.996;8.238;2022-12-18T20:23:20;-2.70;99.90
12967;DHT22;6548;49.996;8.238;2022-12-18T20:25:47;-2.60;99.90
12967;DHT22;6548;49.996;8.238;2022-12-18T20:28:12;-2.40;99.90
12967;DHT22;6548;49.996;8.238;2022-12-18T20:30:38;-2.50;99.90
12967;DHT22;6548;49.996;8.238;2022-12-18T20:33:04;-2.40;99.90
12967;DHT22;6548;49.996;8.238;2022-12-18T20:35:31;-2.30;99.90
12967;DHT22;6548;49.996;8.238;2022-12-18T20:37:57;-2.10;99.90
12967;DHT22;6548;49.996;8.238;2022-12-18T20:40:22;-1.90;99.90
12967;DHT22;6548;49.996;8.238;2022-12-18T20:42:48;-1.70;99.90
12967;DHT22;6548;49.996;8.238;2022-12-18T20:45:14;-1.70;99.90
12967;DHT22;6548;49.996;8.238;2022-12-18T20:47:40;-0.80;99.90
12967;DHT22;6548;49.996;8.238;2022-12-18T20:50:06;-2.00;99.90
12967;DHT22;6548;49.996;8.238;2022-12-18T20:52:32;-1.90;99.90
12967;DHT22;6548;49.996;8.238;2022-12-18T20:54:57;-1.80;99.90
12967;DHT22;6548;49.996;8.238;2022-12-18T20:58:00;-1.80;99.90
12967;DHT22;6548;49.996;8.238;2022-12-18T21:00:26;-1.60;99.90
12967;DHT22;6548;49.996;8.238;2022-12-18T21:02:52;-1.40;99.90
12967;DHT22;6548;49.996;8.238;2022-12-18T21:05:17;-1.40;99.90
12967;DHT22;6548;49.996;8.238;2022-12-18T21:07:43;-1.80;99.90
12967;DHT22;6548;49.996;8.238;2022-12-18T21:10:08;-2.20;99.90
12967;DHT22;6548;49.996;8.238;2022-12-18T21:12:34;-2.20;99.90
12967;DHT22;6548;49.996;8.238;2022-12-18T21:15:07;-2.00;99.90
12967;DHT22;6548;49.996;8.238;2022-12-18T21:17:33;-1.90;99.90
12967;DHT22;6548;49.996;8.238;2022-12-18T21:19:59;-1.80;99.90
12967;DHT22;6548;49.996;8.238;2022-12-18T21:22:25;-2.00;99.90
12967;DHT22;6548;49.996;8.238;2022-12-18T21:24:50;-2.10;99.90
12967;DHT22;6548;49.996;8.238;2022-12-18T21:27:16;-2.20;99.90
12967;DHT22;6548;49.996;8.238;2022-12-18T21:29:42;-2.20;99.90
12967;DHT22;6548;49.996;8.238;2022-12-18T21:32:08;-2.20;99.90
12967;DHT22;6548;49.996;8.238;2022-12-18T21:34:34;-2.30;99.90
12967;DHT22;6548;49.996;8.238;2022-12-18T21:37:02;-2.20;99.90
12967;DHT22;6548;49.996;8.238;2022-12-18T21:39:28;-2.10;99.90
12967;DHT22;6548;49.996;8.238;2022-12-18T21:41:54;-2.20;99.90
12967;DHT22;6548;49.996;8.238;2022-12-18T21:44:39;-2.00;99.90
12967;DHT22;6548;49.996;8.238;2022-12-18T21:47:05;-1.90;99.90
12967;DHT22;6548;49.996;8.238;2022-12-18T21:49:31;-1.80;99.90
12967;DHT22;6548;49.996;8.238;2022-12-18T21:51:59;-1.90;99.90
12967;DHT22;6548;49.996;8.238;2022-12-18T21:54:26;-2.00;99.90
12967;DHT22;6548;49.996;8.238;2022-12-18T21:56:53;-2.20;99.90
12967;DHT22;6548;49.996;8.238;2022-12-18T21:59:26;-2.20;99.90